Terminal Aerodrome Forecast
Issued by NWS

Home | Current Version | Previous Version | Text Only | Print | Product List | Glossary Off
Versions: 1 2 3 4 5 6 7 8 9 10 11 12 13 14 15 16 17 18 19 20 21 22 23 24 25 26 27 28 29 30 31

000
FTUS43 KABR 250600 AAA
TAFATY
TAF AMD
KATY 250610Z 2506/2606 14014KT P6SM BKN100
      TEMPO 2507/2508 3SM +TSRA BKN050CB
     FM250800 14008KT P6SM SCT100
     FM251600 35011KT P6SM SCT120
     FM260200 VRB05KT P6SM SCT120=

USA.gov is the U.S. government's official web portal to all federal, state and local government web resources and services.